ADDS METAR Data

Data at: 1847 UTC 13 Dec 2017

METAR for:LHPR (Gyor-Per Intl, --, HU)
Text:LHPR 131815Z AUTO 21005KT CAVOK 01/M01 Q1015 RMK BLU
Temperature: 1.0°C ( 34°F)
Dewpoint: -1.0°C ( 30°F) [RH = 86%]
Pressure (altimeter):29.97 inches Hg (1015.0 mb)
Winds:from the SSW (210 degrees) at 6 MPH (5 knots; 2.6 m/s)
Visibility:6 or more sm (10+ km)
Ceiling:ceiling and visibility are OK
Clouds:unknown

TAF for:LHPR (Gyor-Per Intl, --, HU) issued at 1715 UTC 13 Dec 2017
Text:TAF LHPR 131715Z 1318/1403 16004KT CAVOK
Forecast period:1800 to 2200 UTC 13 December 2017
Forecast type:FROM: standard forecast or significant change
Winds:from the SSE (160 degrees) at 5 MPH (4 knots; 2.1 m/s)
Visibility:6 or more sm (10+ km)
Clouds:missing
Weather:NSW (no significant weather)
Text:BECMG 1322/1401 20013KT 9999 SCT040
Forecast period:2200 UTC 13 December 2017 to 0300 UTC 14 December 2017
Forecast type:BECOMING: Conditions expected to become as follows by 0100 UTC 14 December 2017
Winds:from the SSW (200 degrees) at 15 MPH (13 knots; 6.7 m/s)
Visibility:6 or more sm (10+ km)
Ceiling:at least 12,000 feet AGL
Clouds: scattered clouds at 4000 feet AGL
Weather:NSW (no significant weather)